sensor_id;sensor_type;location;lat;lon;timestamp;pressure;altitude;pressure_sealevel;temperature;humidity
50226;BME280;36113;50.742;6.432;2023-02-10T00:00:42;145488.81;;;1.96;100.00
50226;BME280;36113;50.742;6.432;2023-02-10T00:03:08;145477.59;;;1.92;100.00
50226;BME280;36113;50.742;6.432;2023-02-10T00:05:33;145453.94;;;1.82;100.00
50226;BME280;36113;50.742;6.432;2023-02-10T00:07:58;145473.88;;;1.90;100.00
50226;BME280;36113;50.742;6.432;2023-02-10T00:10:24;145458.91;;;1.84;100.00
50226;BME280;36113;50.742;6.432;2023-02-10T00:12:49;145467.66;;;1.87;100.00
50226;BME280;36113;50.742;6.432;2023-02-10T00:15:14;145462.66;;;1.85;100.00
50226;BME280;36113;50.742;6.432;2023-02-10T00:17:39;145466.38;;;1.87;100.00
50226;BME280;36113;50.742;6.432;2023-02-10T00:20:05;145456.47;;;1.83;100.00
50226;BME280;36113;50.742;6.432;2023-02-10T00:22:32;145455.22;;;1.82;100.00
50226;BME280;36113;50.742;6.432;2023-02-10T00:24:57;145457.69;;;1.83;100.00
50226;BME280;36113;50.742;6.432;2023-02-10T00:27:22;145427.84;;;1.71;100.00
50226;BME280;36113;50.742;6.432;2023-02-10T00:29:49;145445.25;;;1.78;100.00
50226;BME280;36113;50.742;6.432;2023-02-10T00:32:15;145386.78;;;1.54;100.00
50226;BME280;36113;50.742;6.432;2023-02-10T00:34:43;145435.31;;;1.74;100.00
50226;BME280;36113;50.742;6.432;2023-02-10T00:37:08;145444.00;;;1.78;100.00
50226;BME280;36113;50.742;6.432;2023-02-10T00:39:34;145400.47;;;1.60;100.00
50226;BME280;36113;50.742;6.432;2023-02-10T00:42:00;145390.53;;;1.56;100.00
50226;BME280;36113;50.742;6.432;2023-02-10T00:44:25;145463.94;;;1.86;100.00
50226;BME280;36113;50.742;6.432;2023-02-10T00:46:50;145411.66;;;1.64;100.00
50226;BME280;36113;50.742;6.432;2023-02-10T00:49:15;145406.69;;;1.62;100.00
50226;BME280;36113;50.742;6.432;2023-02-10T00:51:41;145430.34;;;1.72;100.00
50226;BME280;36113;50.742;6.432;2023-02-10T00:54:06;145417.91;;;1.67;100.00
50226;BME280;36113;50.742;6.432;2023-02-10T00:56:32;145422.88;;;1.69;100.00
50226;BME280;36113;50.742;6.432;2023-02-10T00:58:57;145395.50;;;1.58;100.00
50226;BME280;36113;50.742;6.432;2023-02-10T01:01:22;145437.78;;;1.75;100.00
50226;BME280;36113;50.742;6.432;2023-02-10T01:03:48;145399.22;;;1.59;100.00
50226;BME280;36113;50.742;6.432;2023-02-10T01:06:14;145437.78;;;1.75;100.00
50226;BME280;36113;50.742;6.432;2023-02-10T01:08:42;145462.66;;;1.85;100.00
50226;BME280;36113;50.742;6.432;2023-02-10T01:11:10;145460.19;;;1.84;100.00
50226;BME280;36113;50.742;6.432;2023-02-10T01:13:37;145458.91;;;1.84;100.00
50226;BME280;36113;50.742;6.432;2023-02-10T01:16:08;145471.34;;;1.89;100.00
50226;BME280;36113;50.742;6.432;2023-02-10T01:18:41;145461.41;;;1.85;100.00
50226;BME280;36113;50.742;6.432;2023-02-10T01:21:11;145478.84;;;1.92;100.00
50226;BME280;36113;50.742;6.432;2023-02-10T01:23:38;145476.38;;;1.91;100.00
50226;BME280;36113;50.742;6.432;2023-02-10T01:26:03;145431.56;;;1.73;100.00
50226;BME280;36113;50.742;6.432;2023-02-10T01:28:29;145475.09;;;1.91;100.00
50226;BME280;36113;50.742;6.432;2023-02-10T01:30:54;145425.34;;;1.70;100.00
50226;BME280;36113;50.742;6.432;2023-02-10T01:33:20;145471.34;;;1.89;100.00
50226;BME280;36113;50.742;6.432;2023-02-10T01:35:45;145461.41;;;1.85;100.00
50226;BME280;36113;50.742;6.432;2023-02-10T01:38:10;145457.69;;;1.83;100.00
50226;BME280;36113;50.742;6.432;2023-02-10T01:40:35;145477.59;;;1.92;100.00
50226;BME280;36113;50.742;6.432;2023-02-10T01:43:01;145480.09;;;1.93;100.00
50226;BME280;36113;50.742;6.432;2023-02-10T01:45:29;145466.38;;;1.87;100.00
50226;BME280;36113;50.742;6.432;2023-02-10T01:47:56;145471.34;;;1.89;100.00
50226;BME280;36113;50.742;6.432;2023-02-10T01:50:26;145465.16;;;1.86;100.00
50226;BME280;36113;50.742;6.432;2023-02-10T01:52:53;145453.94;;;1.82;100.00
50226;BME280;36113;50.742;6.432;2023-02-10T01:55:23;145473.88;;;1.90;100.00
50226;BME280;36113;50.742;6.432;2023-02-10T01:57:50;145470.13;;;1.88;100.00
50226;BME280;36113;50.742;6.432;2023-02-10T02:00:20;145477.59;;;1.92;100.00
50226;BME280;36113;50.742;6.432;2023-02-10T02:02:46;145497.53;;;2.00;100.00
50226;BME280;36113;50.742;6.432;2023-02-10T02:05:39;145509.97;;;2.05;100.00
50226;BME280;36113;50.742;6.432;2023-02-10T02:13:15;145480.09;;;1.93;100.00
50226;BME280;36113;50.742;6.432;2023-02-10T02:15:47;145467.66;;;1.87;100.00
50226;BME280;36113;50.742;6.432;2023-02-10T02:21:07;145455.22;;;1.82;100.00
50226;BME280;36113;50.742;6.432;2023-02-10T02:26:40;145485.09;;;1.95;100.00
50226;BME280;36113;50.742;6.432;2023-02-10T02:29:40;145471.34;;;1.89;100.00
50226;BME280;36113;50.742;6.432;2023-02-10T02:32:25;145480.09;;;1.93;100.00
50226;BME280;36113;50.742;6.432;2023-02-10T02:35:04;145498.75;;;2.00;100.00
50226;BME280;36113;50.742;6.432;2023-02-10T02:37:43;145415.41;;;1.66;100.00
50226;BME280;36113;50.742;6.432;2023-02-10T02:40:10;145501.25;;;2.01;100.00
50226;BME280;36113;50.742;6.432;2023-02-10T02:42:36;145497.53;;;2.00;100.00
50226;BME280;36113;50.742;6.432;2023-02-10T02:45:05;145505.00;;;2.03;100.00
50226;BME280;36113;50.742;6.432;2023-02-10T02:47:43;145497.53;;;2.00;100.00
50226;BME280;36113;50.742;6.432;2023-02-10T02:53:37;145506.22;;;2.03;100.00
50226;BME280;36113;50.742;6.432;2023-02-10T02:58:58;145490.03;;;1.97;100.00
50226;BME280;36113;50.742;6.432;2023-02-10T03:01:30;145487.53;;;1.96;100.00
50226;BME280;36113;50.742;6.432;2023-02-10T03:03:58;145499.97;;;2.01;100.00
50226;BME280;36113;50.742;6.432;2023-02-10T03:06:24;145466.38;;;1.87;100.00
50226;BME280;36113;50.742;6.432;2023-02-10T03:08:49;145475.09;;;1.91;100.00
50226;BME280;36113;50.742;6.432;2023-02-10T03:11:15;145456.47;;;1.83;100.00
50226;BME280;36113;50.742;6.432;2023-02-10T03:13:40;145499.97;;;2.01;100.00
50226;BME280;36113;50.742;6.432;2023-02-10T03:16:05;145497.53;;;2.00;100.00
50226;BME280;36113;50.742;6.432;2023-02-10T03:18:31;145485.09;;;1.95;100.00
50226;BME280;36113;50.742;6.432;2023-02-10T03:20:56;145502.50;;;2.02;100.00
50226;BME280;36113;50.742;6.432;2023-02-10T03:23:22;145495.00;;;1.99;100.00
50226;BME280;36113;50.742;6.432;2023-02-10T03:25:47;145456.47;;;1.83;100.00
50226;BME280;36113;50.742;6.432;2023-02-10T03:28:13;145512.44;;;2.06;100.00
50226;BME280;36113;50.742;6.432;2023-02-10T03:30:38;145503.72;;;2.02;100.00
50226;BME280;36113;50.742;6.432;2023-02-10T03:33:04;145493.78;;;1.98;100.00
50226;BME280;36113;50.742;6.432;2023-02-10T03:35:34;145471.34;;;1.89;100.00
50226;BME280;36113;50.742;6.432;2023-02-10T03:37:59;145497.53;;;2.00;100.00
50226;BME280;36113;50.742;6.432;2023-02-10T03:40:24;145490.03;;;1.97;100.00
50226;BME280;36113;50.742;6.432;2023-02-10T03:42:50;145490.03;;;1.97;100.00
50226;BME280;36113;50.742;6.432;2023-02-10T03:45:15;145492.56;;;1.98;100.00
50226;BME280;36113;50.742;6.432;2023-02-10T03:47:40;145470.13;;;1.88;100.00
50226;BME280;36113;50.742;6.432;2023-02-10T03:50:06;145476.38;;;1.91;100.00
50226;BME280;36113;50.742;6.432;2023-02-10T03:52:31;145477.59;;;1.92;100.00
50226;BME280;36113;50.742;6.432;2023-02-10T03:54:56;145487.53;;;1.96;100.00
50226;BME280;36113;50.742;6.432;2023-02-10T03:57:22;145477.59;;;1.92;100.00
50226;BME280;36113;50.742;6.432;2023-02-10T03:59:47;145453.94;;;1.82;100.00
50226;BME280;36113;50.742;6.432;2023-02-10T04:02:12;145399.22;;;1.59;100.00
50226;BME280;36113;50.742;6.432;2023-02-10T04:04:38;145429.06;;;1.72;100.00
50226;BME280;36113;50.742;6.432;2023-02-10T04:07:03;145425.34;;;1.70;100.00
50226;BME280;36113;50.742;6.432;2023-02-10T04:09:29;145416.63;;;1.66;100.00
50226;BME280;36113;50.742;6.432;2023-02-10T04:11:54;145401.72;;;1.60;100.00
50226;BME280;36113;50.742;6.432;2023-02-10T04:14:19;145386.78;;;1.54;100.00
50226;BME280;36113;50.742;6.432;2023-02-10T04:16:45;145400.47;;;1.60;100.00
50226;BME280;36113;50.742;6.432;2023-02-10T04:19:10;145355.72;;;1.41;100.00
50226;BME280;36113;50.742;6.432;2023-02-10T04:21:35;145376.84;;;1.50;100.00
50226;BME280;36113;50.742;6.432;2023-02-10T04:24:01;145323.38;;;1.28;100.00
50226;BME280;36113;50.742;6.432;2023-02-10T04:26:26;145318.41;;;1.26;100.00
50226;BME280;36113;50.742;6.432;2023-02-10T04:28:51;145338.25;;;1.34;100.00
50226;BME280;36113;50.742;6.432;2023-02-10T04:31:17;145303.47;;;1.20;100.00
50226;BME280;36113;50.742;6.432;2023-02-10T04:33:42;145279.81;;;1.10;100.00
50226;BME280;36113;50.742;6.432;2023-02-10T04:36:08;145251.28;;;0.98;100.00
50226;BME280;36113;50.742;6.432;2023-02-10T04:38:34;145261.19;;;1.02;100.00
50226;BME280;36113;50.742;6.432;2023-02-10T04:40:59;145246.25;;;0.96;100.00
50226;BME280;36113;50.742;6.432;2023-02-10T04:43:25;145253.72;;;0.99;100.00
50226;BME280;36113;50.742;6.432;2023-02-10T04:45:50;145242.53;;;0.94;100.00
50226;BME280;36113;50.742;6.432;2023-02-10T04:48:15;145212.69;;;0.82;100.00
50226;BME280;36113;50.742;6.432;2023-02-10T04:50:41;145200.28;;;0.77;100.00
50226;BME280;36113;50.742;6.432;2023-02-10T04:53:06;145182.88;;;0.70;100.00
50226;BME280;36113;50.742;6.432;2023-02-10T04:55:33;145135.66;;;0.50;100.00
50226;BME280;36113;50.742;6.432;2023-02-10T04:57:59;145164.25;;;0.62;100.00
50226;BME280;36113;50.742;6.432;2023-02-10T05:00:24;145176.69;;;0.67;100.00
50226;BME280;36113;50.742;6.432;2023-02-10T05:02:50;145174.19;;;0.66;100.00
50226;BME280;36113;50.742;6.432;2023-02-10T05:05:15;145201.53;;;0.78;100.00
50226;BME280;36113;50.742;6.432;2023-02-10T05:07:41;145232.59;;;0.90;100.00
50226;BME280;36113;50.742;6.432;2023-02-10T05:10:06;145236.34;;;0.92;100.00
50226;BME280;36113;50.742;6.432;2023-02-10T05:12:32;145223.91;;;0.87;100.00
50226;BME280;36113;50.742;6.432;2023-02-10T05:14:57;145204.00;;;0.79;100.00
50226;BME280;36113;50.742;6.432;2023-02-10T05:17:22;145204.00;;;0.79;100.00
50226;BME280;36113;50.742;6.432;2023-02-10T05:19:48;145201.53;;;0.78;100.00
50226;BME280;36113;50.742;6.432;2023-02-10T05:22:13;145131.94;;;0.49;100.00
50226;BME280;36113;50.742;6.432;2023-02-10T05:24:38;145154.28;;;0.58;100.00
50226;BME280;36113;50.742;6.432;2023-02-10T05:27:04;145139.41;;;0.52;100.00
50226;BME280;36113;50.742;6.432;2023-02-10T05:29:29;145148.09;;;0.55;100.00
50226;BME280;36113;50.742;6.432;2023-02-10T05:31:54;145107.09;;;0.39;100.00
50226;BME280;36113;50.742;6.432;2023-02-10T05:34:20;145114.56;;;0.42;100.00
50226;BME280;36113;50.742;6.432;2023-02-10T05:36:45;145109.59;;;0.40;100.00
50226;BME280;36113;50.742;6.432;2023-02-10T05:39:11;145098.41;;;0.35;100.00
50226;BME280;36113;50.742;6.432;2023-02-10T05:41:50;145105.84;;;0.38;100.00
50226;BME280;36113;50.742;6.432;2023-02-10T05:44:15;145073.53;;;0.25;100.00
50226;BME280;36113;50.742;6.432;2023-02-10T05:46:40;145115.78;;;0.42;100.00
50226;BME280;36113;50.742;6.432;2023-02-10T05:49:06;145136.91;;;0.51;100.00
50226;BME280;36113;50.742;6.432;2023-02-10T05:51:34;145123.25;;;0.45;100.00
50226;BME280;36113;50.742;6.432;2023-02-10T05:53:59;145120.75;;;0.44;100.00
50226;BME280;36113;50.742;6.432;2023-02-10T05:56:25;145181.66;;;0.69;100.00
50226;BME280;36113;50.742;6.432;2023-02-10T05:58:50;145184.09;;;0.70;100.00
50226;BME280;36113;50.742;6.432;2023-02-10T06:01:15;145170.44;;;0.65;100.00
50226;BME280;36113;50.742;6.432;2023-02-10T06:03:41;145165.50;;;0.63;100.00
50226;BME280;36113;50.742;6.432;2023-02-10T06:06:06;145126.97;;;0.47;100.00
50226;BME280;36113;50.742;6.432;2023-02-10T06:08:32;145168.00;;;0.64;100.00
50226;BME280;36113;50.742;6.432;2023-02-10T06:10:57;145174.19;;;0.66;100.00
50226;BME280;36113;50.742;6.432;2023-02-10T06:13:22;145175.41;;;0.67;100.00
50226;BME280;36113;50.742;6.432;2023-02-10T06:15:48;145100.84;;;0.36;100.00
50226;BME280;36113;50.742;6.432;2023-02-10T06:18:13;145179.16;;;0.68;100.00
50226;BME280;36113;50.742;6.432;2023-02-10T06:20:39;145160.53;;;0.61;100.00
50226;BME280;36113;50.742;6.432;2023-02-10T06:23:04;145164.25;;;0.62;100.00
50226;BME280;36113;50.742;6.432;2023-02-10T06:25:29;145136.91;;;0.51;100.00
50226;BME280;36113;50.742;6.432;2023-02-10T06:27:55;145032.53;;;0.08;100.00
50226;BME280;36113;50.742;6.432;2023-02-10T06:30:20;145097.16;;;0.34;100.00
50226;BME280;36113;50.742;6.432;2023-02-10T06:32:45;145062.34;;;0.20;100.00
50226;BME280;36113;50.742;6.432;2023-02-10T06:35:11;145066.06;;;0.22;100.00
50226;BME280;36113;50.742;6.432;2023-02-10T06:37:36;145044.97;;;0.13;100.00
50226;BME280;36113;50.742;6.432;2023-02-10T06:40:03;144987.81;;;-0.11;100.00
50226;BME280;36113;50.742;6.432;2023-02-10T06:42:28;145007.69;;;-0.03;100.00
50226;BME280;36113;50.742;6.432;2023-02-10T06:44:54;144970.44;;;-0.18;100.00
50226;BME280;36113;50.742;6.432;2023-02-10T06:47:19;144996.50;;;-0.07;100.00
50226;BME280;36113;50.742;6.432;2023-02-10T06:49:45;144990.31;;;-0.10;100.00
50226;BME280;36113;50.742;6.432;2023-02-10T06:52:10;144950.53;;;-0.26;100.00
50226;BME280;36113;50.742;6.432;2023-02-10T06:54:35;144940.63;;;-0.30;100.00
50226;BME280;36113;50.742;6.432;2023-02-10T06:57:00;144953.06;;;-0.25;100.00
50226;BME280;36113;50.742;6.432;2023-02-10T06:59:26;144965.47;;;-0.20;100.00
50226;BME280;36113;50.742;6.432;2023-02-10T07:01:51;144920.75;;;-0.39;100.00
50226;BME280;36113;50.742;6.432;2023-02-10T07:04:18;144939.41;;;-0.31;100.00
50226;BME280;36113;50.742;6.432;2023-02-10T07:06:43;144887.22;;;-0.52;100.00
50226;BME280;36113;50.742;6.432;2023-02-10T07:09:09;144899.66;;;-0.47;100.00
50226;BME280;36113;50.742;6.432;2023-02-10T07:11:34;144890.97;;;-0.51;100.00
50226;BME280;36113;50.742;6.432;2023-02-10T07:13:59;144859.91;;;-0.64;100.00
50226;BME280;36113;50.742;6.432;2023-02-10T07:16:25;144917.03;;;-0.40;100.00
50226;BME280;36113;50.742;6.432;2023-02-10T07:18:50;144923.25;;;-0.38;100.00
50226;BME280;36113;50.742;6.432;2023-02-10T07:21:15;144923.25;;;-0.38;100.00
50226;BME280;36113;50.742;6.432;2023-02-10T07:23:41;144917.03;;;-0.40;100.00
50226;BME280;36113;50.742;6.432;2023-02-10T07:26:06;144951.81;;;-0.26;100.00
50226;BME280;36113;50.742;6.432;2023-02-10T07:28:32;144975.38;;;-0.16;100.00
50226;BME280;36113;50.742;6.432;2023-02-10T07:30:58;144936.91;;;-0.32;100.00
50226;BME280;36113;50.742;6.432;2023-02-10T07:33:23;145008.91;;;-0.02;100.00
50226;BME280;36113;50.742;6.432;2023-02-10T07:35:48;145032.53;;;0.08;100.00
50226;BME280;36113;50.742;6.432;2023-02-10T07:38:13;145049.91;;;0.15;100.00
50226;BME280;36113;50.742;6.432;2023-02-10T07:40:39;145059.88;;;0.19;100.00
50226;BME280;36113;50.742;6.432;2023-02-10T07:43:04;145079.72;;;0.27;100.00
50226;BME280;36113;50.742;6.432;2023-02-10T07:45:29;145068.56;;;0.23;100.00
50226;BME280;36113;50.742;6.432;2023-02-10T07:47:58;145112.03;;;0.41;100.00
50226;BME280;36113;50.742;6.432;2023-02-10T07:50:24;145124.47;;;0.46;100.00
50226;BME280;36113;50.742;6.432;2023-02-10T07:52:49;145150.56;;;0.56;100.00
50226;BME280;36113;50.742;6.432;2023-02-10T07:55:15;145213.97;;;0.83;100.00
50226;BME280;36113;50.742;6.432;2023-02-10T07:57:40;145230.09;;;0.89;100.00
50226;BME280;36113;50.742;6.432;2023-02-10T08:00:07;145232.59;;;0.90;100.00
50226;BME280;36113;50.742;6.432;2023-02-10T08:02:33;145184.09;;;0.70;100.00
50226;BME280;36113;50.742;6.432;2023-02-10T08:04:58;145247.53;;;0.97;100.00
50226;BME280;36113;50.742;6.432;2023-02-10T08:07:24;145276.13;;;1.08;100.00
50226;BME280;36113;50.742;6.432;2023-02-10T08:09:49;145261.19;;;1.02;100.00
50226;BME280;36113;50.742;6.432;2023-02-10T08:12:14;145319.63;;;1.26;100.00
50226;BME280;36113;50.742;6.432;2023-02-10T08:14:40;145355.72;;;1.41;100.00
50226;BME280;36113;50.742;6.432;2023-02-10T08:17:05;145380.59;;;1.52;100.00
50226;BME280;36113;50.742;6.432;2023-02-10T08:19:30;145402.97;;;1.61;100.00
50226;BME280;36113;50.742;6.432;2023-02-10T08:21:56;145368.16;;;1.46;100.00
50226;BME280;36113;50.742;6.432;2023-02-10T08:24:22;145422.88;;;1.69;100.00
50226;BME280;36113;50.742;6.432;2023-02-10T08:26:47;145455.22;;;1.82;100.00
50226;BME280;36113;50.742;6.432;2023-02-10T08:29:12;145487.53;;;1.96;100.00
50226;BME280;36113;50.742;6.432;2023-02-10T08:31:38;145496.25;;;1.99;100.00
50226;BME280;36113;50.742;6.432;2023-02-10T08:34:03;145548.53;;;2.21;100.00
50226;BME280;36113;50.742;6.432;2023-02-10T08:36:29;145582.13;;;2.35;100.00
50226;BME280;36113;50.742;6.432;2023-02-10T08:38:55;145584.63;;;2.36;100.00
50226;BME280;36113;50.742;6.432;2023-02-10T08:41:20;145587.09;;;2.37;100.00
50226;BME280;36113;50.742;6.432;2023-02-10T08:43:46;145604.50;;;2.44;100.00
50226;BME280;36113;50.742;6.432;2023-02-10T08:46:11;145590.84;;;2.38;100.00
50226;BME280;36113;50.742;6.432;2023-02-10T08:48:36;145572.19;;;2.31;100.00
50226;BME280;36113;50.742;6.432;2023-02-10T08:51:06;145621.97;;;2.51;100.00
50226;BME280;36113;50.742;6.432;2023-02-10T08:53:32;145684.22;;;2.77;100.00
50226;BME280;36113;50.742;6.432;2023-02-10T08:55:59;145712.81;;;2.89;100.00
50226;BME280;36113;50.742;6.432;2023-02-10T08:58:26;145753.91;;;3.06;100.00
50226;BME280;36113;50.742;6.432;2023-02-10T09:00:52;145814.97;;;3.31;100.00
50226;BME280;36113;50.742;6.432;2023-02-10T09:03:17;145858.53;;;3.49;100.00
50226;BME280;36113;50.742;6.432;2023-02-10T09:05:43;145923.34;;;3.75;100.00
50226;BME280;36113;50.742;6.432;2023-02-10T09:08:11;145984.41;;;4.01;100.00
50226;BME280;36113;50.742;6.432;2023-02-10T09:10:39;146015.56;;;4.13;100.00
50226;BME280;36113;50.742;6.432;2023-02-10T09:13:04;146067.94;;;4.35;100.00
50226;BME280;36113;50.742;6.432;2023-02-10T09:15:30;146087.84;;;4.43;100.00
50226;BME280;36113;50.742;6.432;2023-02-10T09:17:55;146090.34;;;4.44;100.00
50226;BME280;36113;50.742;6.432;2023-02-10T09:20:20;146079.13;;;4.40;100.00
50226;BME280;36113;50.742;6.432;2023-02-10T09:22:45;146147.72;;;4.68;100.00
50226;BME280;36113;50.742;6.432;2023-02-10T09:25:13;146171.38;;;4.78;100.00
50226;BME280;36113;50.742;6.432;2023-02-10T09:27:38;146132.72;;;4.62;100.00
50226;BME280;36113;50.742;6.432;2023-02-10T09:30:04;146148.94;;;4.68;100.00
50226;BME280;36113;50.742;6.432;2023-02-10T09:32:29;146156.44;;;4.72;100.00
50226;BME280;36113;50.742;6.432;2023-02-10T09:34:54;146162.66;;;4.74;100.00
50226;BME280;36113;50.742;6.432;2023-02-10T09:37:20;146187.59;;;4.84;100.00
50226;BME280;36113;50.742;6.432;2023-02-10T09:39:46;146201.34;;;4.90;100.00
50226;BME280;36113;50.742;6.432;2023-02-10T09:45:13;146161.41;;;4.74;100.00
50226;BME280;36113;50.742;6.432;2023-02-10T09:47:48;146166.41;;;4.76;100.00
50226;BME280;36113;50.742;6.432;2023-02-10T09:53:16;146259.97;;;5.14;100.00
50226;BME280;36113;50.742;6.432;2023-02-10T09:55:48;146293.63;;;5.28;100.00
50226;BME280;36113;50.742;6.432;2023-02-10T09:58:30;146316.06;;;5.37;100.00
50226;BME280;36113;50.742;6.432;2023-02-10T10:01:03;146358.50;;;5.55;100.00
50226;BME280;36113;50.742;6.432;2023-02-10T10:03:42;146410.91;;;5.76;100.00
50226;BME280;36113;50.742;6.432;2023-02-10T10:06:14;146467.13;;;5.99;100.00
50226;BME280;36113;50.742;6.432;2023-02-10T10:14:00;146514.56;;;6.19;100.00
50226;BME280;36113;50.742;6.432;2023-02-10T10:22:23;146444.63;;;5.90;98.79
50226;BME280;36113;50.742;6.432;2023-02-10T10:30:20;146277.41;;;5.21;100.00
50226;BME280;36113;50.742;6.432;2023-02-10T10:32:53;146398.44;;;5.71;100.00
50226;BME280;36113;50.742;6.432;2023-02-10T10:35:30;146397.16;;;5.71;98.76
50226;BME280;36113;50.742;6.432;2023-02-10T10:37:57;146402.19;;;5.73;99.10
50226;BME280;36113;50.742;6.432;2023-02-10T10:40:27;146380.97;;;5.64;98.35
50226;BME280;36113;50.742;6.432;2023-02-10T10:42:57;146438.34;;;5.88;98.71
50226;BME280;36113;50.742;6.432;2023-02-10T10:45:25;146408.41;;;5.75;96.65
50226;BME280;36113;50.742;6.432;2023-02-10T10:47:57;146439.63;;;5.88;96.58
50226;BME280;36113;50.742;6.432;2023-02-10T10:50:24;146427.16;;;5.83;96.89
50226;BME280;36113;50.742;6.432;2023-02-10T10:52:52;146437.13;;;5.87;97.32
50226;BME280;36113;50.742;6.432;2023-02-10T10:55:34;146465.88;;;5.99;95.75
50226;BME280;36113;50.742;6.432;2023-02-10T10:58:03;146489.63;;;6.09;96.12
50226;BME280;36113;50.742;6.432;2023-02-10T11:00:35;146484.56;;;6.07;96.38
50226;BME280;36113;50.742;6.432;2023-02-10T11:03:03;146499.56;;;6.13;96.34
50226;BME280;36113;50.742;6.432;2023-02-10T11:05:34;146495.84;;;6.11;94.73
50226;BME280;36113;50.742;6.432;2023-02-10T11:08:00;146465.88;;;5.99;94.96
50226;BME280;36113;50.742;6.432;2023-02-10T11:10:37;146485.88;;;6.07;96.05
50226;BME280;36113;50.742;6.432;2023-02-10T11:13:04;146469.63;;;6.00;95.28
50226;BME280;36113;50.742;6.432;2023-02-10T11:15:39;146493.38;;;6.10;94.75
50226;BME280;36113;50.742;6.432;2023-02-10T11:18:13;146503.34;;;6.14;95.82
50226;BME280;36113;50.742;6.432;2023-02-10T11:20:52;146509.56;;;6.17;96.73
50226;BME280;36113;50.742;6.432;2023-02-10T11:23:17;146453.34;;;5.94;93.81
50226;BME280;36113;50.742;6.432;2023-02-10T11:25:54;146514.56;;;6.19;95.46
50226;BME280;36113;50.742;6.432;2023-02-10T11:28:21;146535.78;;;6.28;95.26
50226;BME280;36113;50.742;6.432;2023-02-10T11:30:52;146533.28;;;6.27;92.89
50226;BME280;36113;50.742;6.432;2023-02-10T11:33:22;146535.78;;;6.28;92.59
50226;BME280;36113;50.742;6.432;2023-02-10T11:36:08;146440.88;;;5.89;92.87
50226;BME280;36113;50.742;6.432;2023-02-10T11:38:38;146504.56;;;6.15;92.57
50226;BME280;36113;50.742;6.432;2023-02-10T11:41:07;146545.78;;;6.32;92.50
50226;BME280;36113;50.742;6.432;2023-02-10T11:46:15;146564.53;;;6.40;89.46
50226;BME280;36113;50.742;6.432;2023-02-10T11:48:52;146563.25;;;6.39;88.99
50226;BME280;36113;50.742;6.432;2023-02-10T11:51:18;146571.97;;;6.43;89.08
50226;BME280;36113;50.742;6.432;2023-02-10T11:53:46;146589.50;;;6.50;89.23
50226;BME280;36113;50.742;6.432;2023-02-10T11:56:19;146670.66;;;6.83;87.88
50226;BME280;36113;50.742;6.432;2023-02-10T12:17:48;146703.13;;;6.97;85.62
50226;BME280;36113;50.742;6.432;2023-02-10T12:20:29;146715.63;;;7.02;84.89
50226;BME280;36113;50.742;6.432;2023-02-10T12:25:54;146773.06;;;7.25;85.46
50226;BME280;36113;50.742;6.432;2023-02-10T12:28:24;146760.56;;;7.20;85.21
50226;BME280;36113;50.742;6.432;2023-02-10T12:30:56;146745.59;;;7.14;86.79
50226;BME280;36113;50.742;6.432;2023-02-10T12:33:40;146736.88;;;7.10;86.86
50226;BME280;36113;50.742;6.432;2023-02-10T12:36:28;146711.88;;;7.00;88.06
50226;BME280;36113;50.742;6.432;2023-02-10T12:44:09;146660.69;;;6.79;92.95
50226;BME280;36113;50.742;6.432;2023-02-10T12:54:46;146808.06;;;7.40;91.07
50226;BME280;36113;50.742;6.432;2023-02-10T12:57:16;146838.06;;;7.52;90.15
50226;BME280;36113;50.742;6.432;2023-02-10T13:00:01;146859.31;;;7.61;88.18
50226;BME280;36113;50.742;6.432;2023-02-10T13:02:44;146871.81;;;7.66;87.55
50226;BME280;36113;50.742;6.432;2023-02-10T13:05:15;146805.56;;;7.39;87.93
50226;BME280;36113;50.742;6.432;2023-02-10T13:07:49;146836.81;;;7.51;87.04
50226;BME280;36113;50.742;6.432;2023-02-10T13:12:46;146865.56;;;7.63;87.36
50226;BME280;36113;50.742;6.432;2023-02-10T13:15:23;146880.53;;;7.69;85.97
50226;BME280;36113;50.742;6.432;2023-02-10T13:17:50;146839.28;;;7.53;83.93
50226;BME280;36113;50.742;6.432;2023-02-10T13:20:53;146821.81;;;7.45;85.68
50226;BME280;36113;50.742;6.432;2023-02-10T13:26:30;146786.84;;;7.31;86.14
50226;BME280;36113;50.742;6.432;2023-02-10T13:36:27;146791.81;;;7.33;87.12
50226;BME280;36113;50.742;6.432;2023-02-10T13:39:05;146773.06;;;7.25;86.44
50226;BME280;36113;50.742;6.432;2023-02-10T13:41:35;146749.34;;;7.16;86.21
50226;BME280;36113;50.742;6.432;2023-02-10T13:44:23;146759.34;;;7.20;86.75
50226;BME280;36113;50.742;6.432;2023-02-10T13:46:54;146714.34;;;7.01;87.95
50226;BME280;36113;50.742;6.432;2023-02-10T13:49:21;146714.34;;;7.01;88.48
50226;BME280;36113;50.742;6.432;2023-02-10T13:51:50;146730.59;;;7.08;88.50
50226;BME280;36113;50.742;6.432;2023-02-10T13:54:31;146708.13;;;6.99;89.70
50226;BME280;36113;50.742;6.432;2023-02-10T13:56:57;146723.09;;;7.05;89.56
50226;BME280;36113;50.742;6.432;2023-02-10T13:59:27;146723.09;;;7.05;89.37
50226;BME280;36113;50.742;6.432;2023-02-10T14:02:16;146774.34;;;7.26;89.40
50226;BME280;36113;50.742;6.432;2023-02-10T14:04:44;146790.59;;;7.32;89.43
50226;BME280;36113;50.742;6.432;2023-02-10T14:10:20;146798.06;;;7.36;89.99
50226;BME280;36113;50.742;6.432;2023-02-10T14:12:55;146769.34;;;7.24;89.04
50226;BME280;36113;50.742;6.432;2023-02-10T14:15:24;146760.56;;;7.20;89.30
50226;BME280;36113;50.742;6.432;2023-02-10T14:18:06;146751.81;;;7.17;89.94
50226;BME280;36113;50.742;6.432;2023-02-10T14:20:54;146735.59;;;7.10;90.40
50226;BME280;36113;50.742;6.432;2023-02-10T14:23:20;146745.59;;;7.14;90.78
50226;BME280;36113;50.742;6.432;2023-02-10T14:25:58;146725.59;;;7.06;91.17
50226;BME280;36113;50.742;6.432;2023-02-10T14:28:31;146681.91;;;6.88;93.02
50226;BME280;36113;50.742;6.432;2023-02-10T14:34:00;146711.88;;;7.00;92.23